Time;durP1;ratioP1;P1;durP2;ratioP2;P2;SDS_P1;SDS_P2;PMS_P1;PMS_P2;Temp;Humidity;BMP_temperature;BMP_pressure;BME280_temperature;BME280_humidity;BME280_pressure;Samples;Min_cycle;Max_cycle;Signal;HPM_P1;HPM_P2
2023/06/08 00:00:33;;;;;;;;;;;;;;;16.36;64.20;99777.44;3166264;28;19997;-64
2023/06/08 00:02:05;;;;;;;;;;;;;;;16.33;64.33;99782.09;3166663;28;20399;-65
2023/06/08 00:03:38;;;;;;;;;;;;;;;16.32;64.43;99783.00;3166318;28;20388;-65
2023/06/08 00:05:12;;;;;;;;;;;;;;;16.31;64.44;99778.72;3166438;28;19935;-65
2023/06/08 00:06:44;;;;;;;;;;;;;;;16.27;64.94;99770.22;3151600;28;19937;-66
2023/06/08 00:08:16;;;;;;;;;;;;;;;16.26;64.81;99775.56;3166576;28;20395;-65
2023/06/08 00:09:48;;;;;;;;;;;;;;;16.24;64.76;99775.69;3166541;28;20370;-65
2023/06/08 00:11:20;;;;;;;;;;;;;;;16.20;65.26;99768.94;3166345;28;19977;-65
2023/06/08 00:12:52;;;;;;;;;;;;;;;16.18;65.54;99764.72;3166222;28;19927;-65
2023/06/08 00:14:22;;;;;;;;;;;;;;;16.15;65.52;99771.91;3165229;28;20400;-65
2023/06/08 00:15:54;;;;;;;;;;;;;;;16.17;65.46;99768.31;3166312;28;19967;-65
2023/06/08 00:17:25;;;;;;;;;;;;;;;16.17;65.33;99773.56;3166310;28;20042;-65
2023/06/08 00:18:57;;;;;;;;;;;;;;;16.17;65.19;99769.16;3153821;28;19928;-65
2023/06/08 00:20:29;;;;;;;;;;;;;;;16.18;65.23;99765.59;3165479;28;19939;-65
2023/06/08 00:22:04;;;;;;;;;;;;;;;16.18;65.17;99765.59;3166059;28;19931;-65
2023/06/08 00:23:36;;;;;;;;;;;;;;;16.20;65.08;99768.09;3166208;28;20088;-65
2023/06/08 00:25:09;;;;;;;;;;;;;;;16.20;65.07;99762.84;3165972;28;20650;-65
2023/06/08 00:26:40;;;;;;;;;;;;;;;16.20;65.14;99760.22;3165974;28;20727;-65
2023/06/08 00:28:12;;;;;;;;;;;;;;;16.20;65.28;99768.94;3165744;28;19939;-65
2023/06/08 00:29:44;;;;;;;;;;;;;;;16.19;65.24;99761.16;3166107;28;20007;-64
2023/06/08 00:31:15;;;;;;;;;;;;;;;16.18;65.10;99764.72;3165840;28;19928;-64
2023/06/08 00:32:46;;;;;;;;;;;;;;;16.17;65.09;99760.44;3166084;28;20316;-63
2023/06/08 00:34:18;;;;;;;;;;;;;;;16.18;65.15;99764.72;3165879;28;19931;-64
2023/06/08 00:35:49;;;;;;;;;;;;;;;16.16;65.17;99764.84;3166270;28;20332;-64
2023/06/08 00:37:21;;;;;;;;;;;;;;;16.14;65.14;99767.56;3165902;28;19975;-65
2023/06/08 00:38:52;;;;;;;;;;;;;;;16.11;65.40;99759.91;3166043;28;19931;-64
2023/06/08 00:40:25;;;;;;;;;;;;;;;16.10;65.49;99762.63;3165896;28;20028;-64
2023/06/08 00:41:56;;;;;;;;;;;;;;;16.07;65.58;99766.31;3164426;28;19931;-64
2023/06/08 00:43:27;;;;;;;;;;;;;;;16.05;65.84;99770.00;3160301;28;20453;-64
2023/06/08 00:44:59;;;;;;;;;;;;;;;16.03;66.10;99771.88;3153291;28;19928;-64
2023/06/08 00:46:31;;;;;;;;;;;;;;;16.00;66.13;99765.06;3165683;28;19927;-64
2023/06/08 00:48:02;;;;;;;;;;;;;;;15.99;66.00;99754.66;3166142;28;20031;-64
2023/06/08 00:49:34;;;;;;;;;;;;;;;15.89;65.89;99738.69;3165936;28;19938;-64
2023/06/08 00:51:06;;;;;;;;;;;;;;;15.95;66.19;99759.28;3165687;28;20461;-64
2023/06/08 00:52:39;;;;;;;;;;;;;;;15.95;66.16;99758.44;3162643;28;19928;-64
2023/06/08 00:54:14;;;;;;;;;;;;;;;15.95;66.04;99759.28;3164235;28;19928;-64
2023/06/08 00:55:50;;;;;;;;;;;;;;;15.94;66.12;99747.06;3161854;28;19931;-64
2023/06/08 00:57:25;;;;;;;;;;;;;;;15.93;66.07;99753.28;3165889;28;19967;-64
2023/06/08 00:59:00;;;;;;;;;;;;;;;15.92;66.26;99752.44;3161932;28;19927;-64
2023/06/08 01:00:32;;;;;;;;;;;;;;;15.91;66.27;99757.78;3165660;28;19931;-64
2023/06/08 01:02:05;;;;;;;;;;;;;;;15.88;66.48;99755.38;3165762;28;19938;-64
2023/06/08 01:03:38;;;;;;;;;;;;;;;15.87;66.60;99756.31;3165522;28;19931;-64
2023/06/08 01:05:12;;;;;;;;;;;;;;;15.86;66.90;99757.28;3165635;28;20010;-64
2023/06/08 01:06:46;;;;;;;;;;;;;;;15.83;66.89;99760.94;3165290;28;19939;-64
2023/06/08 01:08:21;;;;;;;;;;;;;;;15.82;66.71;99763.66;3166033;28;19935;-64
2023/06/08 01:09:56;;;;;;;;;;;;;;;15.81;66.83;99756.75;3164353;28;19934;-64
2023/06/08 01:11:39;;;;;;;;;;;;;;;15.83;66.72;99754.88;3156954;28;19965;-64
2023/06/08 01:13:15;;;;;;;;;;;;;;;15.84;66.88;99751.28;3165295;28;20373;-64
2023/06/08 01:14:50;;;;;;;;;;;;;;;15.84;66.68;99756.53;3165787;28;19928;-64
2023/06/08 01:16:23;;;;;;;;;;;;;;;15.83;66.75;99754.88;3165310;28;20465;-64
2023/06/08 01:17:57;;;;;;;;;;;;;;;15.80;67.00;99750.66;3165707;28;19931;-64
2023/06/08 01:19:38;;;;;;;;;;;;;;;15.78;66.77;99747.28;3165497;28;20739;-66
2023/06/08 01:21:22;;;;;;;;;;;;;;;15.78;66.76;99759.56;3165794;28;19928;-66
2023/06/08 01:23:00;;;;;;;;;;;;;;;15.78;66.88;99751.69;3165606;28;20301;-65
2023/06/08 01:24:35;;;;;;;;;;;;;;;15.79;66.78;99754.19;3164682;28;20004;-66
2023/06/08 01:26:10;;;;;;;;;;;;;;;15.79;66.94;99758.63;3157814;28;20482;-65
2023/06/08 01:27:41;;;;;;;;;;;;;;;15.80;66.66;99760.31;3165089;28;19927;-66
2023/06/08 01:29:15;;;;;;;;;;;;;;;15.79;66.66;99751.56;3163857;28;19994;-66
2023/06/08 01:30:48;;;;;;;;;;;;;;;15.78;66.64;99756.94;3157518;28;19972;-65
2023/06/08 01:32:20;;;;;;;;;;;;;;;15.77;66.51;99753.50;3164925;28;19999;-65
2023/06/08 01:33:52;;;;;;;;;;;;;;;15.79;66.67;99756.81;3161968;28;19928;-66
2023/06/08 01:35:22;;;;;;;;;;;;;;;15.79;66.45;99759.47;3165564;28;19989;-64
2023/06/08 01:36:57;;;;;;;;;;;;;;;15.78;66.53;99756.94;3164858;28;20042;-63
2023/06/08 01:38:32;;;;;;;;;;;;;;;15.78;66.50;99756.94;3165489;28;19977;-64
2023/06/08 01:40:10;;;;;;;;;;;;;;;15.77;66.57;99757.91;3165188;28;19981;-65
2023/06/08 01:41:43;;;;;;;;;;;;;;;15.74;66.76;99758.94;3165569;28;20621;-65
2023/06/08 01:43:16;;;;;;;;;;;;;;;15.74;66.59;99760.75;3156585;28;19989;-64
2023/06/08 01:44:51;;;;;;;;;;;;;;;15.73;66.63;99757.25;3163737;28;19938;-64
2023/06/08 01:46:23;;;;;;;;;;;;;;;15.76;66.54;99762.28;3165454;28;19927;-64
2023/06/08 01:47:57;;;;;;;;;;;;;;;15.75;66.51;99762.41;3165714;28;20244;-64
2023/06/08 01:49:28;;;;;;;;;;;;;;;15.76;66.84;99758.81;3165454;28;20378;-64
2023/06/08 01:51:00;;;;;;;;;;;;;;;15.75;66.72;99759.78;3165351;28;19938;-64
2023/06/08 01:52:32;;;;;;;;;;;;;;;15.76;66.78;99758.81;3165381;28;19935;-64
2023/06/08 01:54:06;;;;;;;;;;;;;;;15.75;66.51;99762.41;3164858;28;19980;-64
2023/06/08 01:55:39;;;;;;;;;;;;;;;15.76;66.51;99761.44;3159974;28;19934;-64
2023/06/08 01:57:10;;;;;;;;;;;;;;;15.76;66.56;99761.44;3164970;28;19927;-64
2023/06/08 01:58:51;;;;;;;;;;;;;;;15.75;66.50;99762.41;3160064;28;20394;-63
2023/06/08 02:00:22;;;;;;;;;;;;;;;15.76;66.46;99758.81;3164138;28;19924;-63
2023/06/08 02:01:54;;;;;;;;;;;;;;;15.78;66.59;99768.28;3170694;28;19924;-63
2023/06/08 02:03:25;;;;;;;;;;;;;;;15.77;66.45;99758.75;3170669;28;19924;-64
2023/06/08 02:04:57;;;;;;;;;;;;;;;15.77;66.60;99757.91;3170496;28;20305;-63
2023/06/08 02:06:28;;;;;;;;;;;;;;;15.75;66.61;99758.00;3169469;28;19928;-64
2023/06/08 02:07:59;;;;;;;;;;;;;;;15.75;66.64;99751.91;3170785;28;20366;-64
2023/06/08 02:09:31;;;;;;;;;;;;;;;15.75;66.57;99754.53;3170287;28;19928;-64
2023/06/08 02:11:04;;;;;;;;;;;;;;;15.75;66.50;99757.16;3170697;28;19924;-64
2023/06/08 02:12:35;;;;;;;;;;;;;;;15.76;66.67;99758.81;3169972;28;20065;-64
2023/06/08 02:14:06;;;;;;;;;;;;;;;15.76;66.43;99754.41;3170649;28;19923;-64
2023/06/08 02:15:38;;;;;;;;;;;;;;;15.74;66.67;99758.94;3170544;28;19924;-64
2023/06/08 02:17:10;;;;;;;;;;;;;;;15.74;66.49;99760.75;3170567;28;20384;-64
2023/06/08 02:18:41;;;;;;;;;;;;;;;15.75;66.60;99762.41;3170590;28;19924;-64
2023/06/08 02:20:13;;;;;;;;;;;;;;;15.74;66.74;99758.13;3173147;28;19924;-64
2023/06/08 02:21:44;;;;;;;;;;;;;;;15.75;66.59;99757.16;3163635;28;20393;-64
2023/06/08 02:23:15;;;;;;;;;;;;;;;15.75;66.62;99754.53;3168804;28;19924;-64
2023/06/08 02:24:47;;;;;;;;;;;;;;;15.75;66.57;99762.41;3172776;28;19931;-64
2023/06/08 02:26:22;;;;;;;;;;;;;;;15.75;66.80;99758.00;3171273;28;19923;-64
2023/06/08 02:27:53;;;;;;;;;;;;;;;15.77;66.43;99747.41;3172910;28;19977;-64
2023/06/08 02:29:24;;;;;;;;;;;;;;;15.78;66.38;99756.94;3172320;28;19924;-64
2023/06/08 02:30:55;;;;;;;;;;;;;;;15.78;66.40;99755.16;3172915;28;19924;-63
2023/06/08 02:32:27;;;;;;;;;;;;;;;15.77;66.29;99756.13;3172709;28;19934;-64
2023/06/08 02:33:58;;;;;;;;;;;;;;;15.79;66.19;99750.75;3173012;28;19938;-63
2023/06/08 02:35:29;;;;;;;;;;;;;;;15.79;66.43;99746.31;3168806;28;19924;-64
2023/06/08 02:37:00;;;;;;;;;;;;;;;15.81;66.26;99746.25;3172505;28;19923;-64
2023/06/08 02:38:32;;;;;;;;;;;;;;;15.82;66.34;99743.50;3172925;28;19923;-64
2023/06/08 02:40:04;;;;;;;;;;;;;;;15.82;66.26;99748.75;3172778;28;19996;-63
2023/06/08 02:41:37;;;;;;;;;;;;;;;15.82;66.35;99746.13;3172544;28;20393;-64
2023/06/08 02:43:09;;;;;;;;;;;;;;;15.84;66.01;99751.28;3172471;28;20388;-64
2023/06/08 02:44:39;;;;;;;;;;;;;;;15.84;66.28;99753.91;3172725;28;20332;-64
2023/06/08 02:46:11;;;;;;;;;;;;;;;15.80;66.25;99750.66;3170256;28;19932;-63
2023/06/08 02:47:42;;;;;;;;;;;;;;;15.80;66.50;99755.06;3172286;28;19924;-62
2023/06/08 02:49:13;;;;;;;;;;;;;;;15.78;66.57;99751.69;3172797;28;19934;-64
2023/06/08 02:50:45;;;;;;;;;;;;;;;15.77;66.67;99755.28;3172349;28;20374;-63
2023/06/08 02:52:15;;;;;;;;;;;;;;;15.76;66.71;99756.19;3172708;28;19931;-64
2023/06/08 02:53:47;;;;;;;;;;;;;;;15.76;66.91;99761.44;3172684;28;20013;-63
2023/06/08 02:55:18;;;;;;;;;;;;;;;15.76;66.66;99758.81;3170890;28;19928;-64
2023/06/08 02:56:51;;;;;;;;;;;;;;;15.78;66.80;99760.41;3172713;28;20404;-64
2023/06/08 02:58:23;;;;;;;;;;;;;;;15.80;66.65;99761.16;3172109;28;19931;-64
2023/06/08 02:59:55;;;;;;;;;;;;;;;15.84;66.76;99761.78;3172586;28;20179;-63
2023/06/08 03:01:30;;;;;;;;;;;;;;;15.85;66.48;99758.19;3172352;28;19924;-65
2023/06/08 03:03:02;;;;;;;;;;;;;;;15.86;66.63;99760.75;3172422;28;19928;-64
2023/06/08 03:04:32;;;;;;;;;;;;;;;15.86;66.52;99757.28;3172323;28;19928;-64
2023/06/08 03:06:05;;;;;;;;;;;;;;;15.87;66.75;99765.03;3172639;28;19924;-64
2023/06/08 03:07:40;;;;;;;;;;;;;;;15.89;66.66;99765.78;3172357;28;20524;-63
2023/06/08 03:09:12;;;;;;;;;;;;;;;15.90;66.62;99767.47;3172495;28;19945;-63
2023/06/08 03:10:43;;;;;;;;;;;;;;;15.93;66.42;99761.16;3172403;28;19928;-64
2023/06/08 03:12:15;;;;;;;;;;;;;;;15.94;66.23;99757.56;3172157;28;19928;-64
2023/06/08 03:13:48;;;;;;;;;;;;;;;15.97;66.25;99762.63;3172266;28;19924;-64
2023/06/08 03:15:22;;;;;;;;;;;;;;;15.99;66.23;99760.75;3172470;28;19949;-64
2023/06/08 03:16:53;;;;;;;;;;;;;;;15.99;66.06;99770.41;3172157;28;19934;-64
2023/06/08 03:18:24;;;;;;;;;;;;;;;16.00;66.30;99767.69;3172553;28;19924;-64
2023/06/08 03:19:55;;;;;;;;;;;;;;;16.01;66.13;99766.75;3172296;28;19935;-65
2023/06/08 03:21:28;;;;;;;;;;;;;;;16.04;66.10;99761.28;3172134;28;20385;-64
2023/06/08 03:23:00;;;;;;;;;;;;;;;16.06;65.99;99761.16;3172072;28;20399;-64
2023/06/08 03:24:32;;;;;;;;;;;;;;;16.08;65.90;99761.91;3171893;28;20332;-64
2023/06/08 03:26:04;;;;;;;;;;;;;;;16.10;65.87;99755.59;3172605;28;19935;-65
2023/06/08 03:27:37;;;;;;;;;;;;;;;16.15;65.72;99760.56;3169547;28;19942;-65
2023/06/08 03:29:08;;;;;;;;;;;;;;;16.17;65.91;99760.44;3171182;28;19928;-63
2023/06/08 03:30:40;;;;;;;;;;;;;;;16.19;65.82;99761.16;3168924;28;19928;-63
2023/06/08 03:32:10;;;;;;;;;;;;;;;16.23;65.77;99762.63;3172302;28;19985;-63
2023/06/08 03:33:42;;;;;;;;;;;;;;;16.24;65.88;99757.28;3172156;28;19923;-64
2023/06/08 03:35:14;;;;;;;;;;;;;;;16.27;65.69;99764.94;3171960;28;19927;-63
2023/06/08 03:36:45;;;;;;;;;;;;;;;16.32;65.42;99762.00;3171998;28;19924;-64
2023/06/08 03:38:18;;;;;;;;;;;;;;;16.35;65.46;99764.41;3171928;28;19924;-63
2023/06/08 03:39:48;;;;;;;;;;;;;;;16.37;65.69;99757.25;3171828;28;20331;-63
2023/06/08 03:41:21;;;;;;;;;;;;;;;16.40;65.35;99767.56;3171643;28;19923;-63
2023/06/08 03:42:54;;;;;;;;;;;;;;;16.43;65.36;99756.00;3171876;28;19923;-64
2023/06/08 03:44:25;;;;;;;;;;;;;;;16.46;65.32;99763.66;3171787;28;19924;-64
2023/06/08 03:45:57;;;;;;;;;;;;;;;16.48;65.38;99765.25;3171831;28;19931;-63
2023/06/08 03:47:31;;;;;;;;;;;;;;;16.49;65.37;99768.69;3171904;28;19951;-66
2023/06/08 03:49:02;;;;;;;;;;;;;;;16.50;65.35;99771.22;3171493;28;19924;-65
2023/06/08 03:50:34;;;;;;;;;;;;;;;16.53;65.49;99772.78;3171503;28;19927;-65
2023/06/08 03:52:06;;;;;;;;;;;;;;;16.56;65.20;99777.81;3171840;28;20014;-65
2023/06/08 03:53:36;;;;;;;;;;;;;;;16.60;65.08;99774.06;3171848;28;19923;-65
2023/06/08 03:55:08;;;;;;;;;;;;;;;16.64;65.20;99777.28;3171697;28;20426;-65
2023/06/08 03:56:40;;;;;;;;;;;;;;;16.66;65.05;99773.63;3171755;28;19927;-65
2023/06/08 03:58:13;;;;;;;;;;;;;;;16.70;65.03;99775.06;3171476;28;19981;-65
2023/06/08 03:59:45;;;;;;;;;;;;;;;16.74;65.07;99783.56;3171665;28;19928;-65
2023/06/08 04:01:17;;;;;;;;;;;;;;;16.76;64.95;99772.03;3171756;28;19924;-65
2023/06/08 04:02:50;;;;;;;;;;;;;;;16.78;64.93;99777.19;3171713;28;19935;-65
2023/06/08 04:04:23;;;;;;;;;;;;;;;16.79;64.94;99776.22;3171687;28;19924;-65
2023/06/08 04:05:56;;;;;;;;;;;;;;;16.82;64.86;99782.09;3171575;28;19927;-65
2023/06/08 04:07:28;;;;;;;;;;;;;;;16.85;64.86;99777.59;3171253;28;19924;-67
2023/06/08 04:08:59;;;;;;;;;;;;;;;16.90;64.69;99780.75;3171233;28;19923;-67
2023/06/08 04:10:30;;;;;;;;;;;;;;;16.90;64.70;99778.94;3171393;28;20324;-66
2023/06/08 04:12:02;;;;;;;;;;;;;;;16.94;64.64;99779.56;3171918;28;19923;-66
2023/06/08 04:13:36;;;;;;;;;;;;;;;16.96;64.46;99775.88;3167536;28;19928;-67
2023/06/08 04:15:07;;;;;;;;;;;;;;;17.01;64.55;99776.38;3168015;28;19924;-67
2023/06/08 04:16:41;;;;;;;;;;;;;;;17.05;64.42;99777.84;3171648;28;20018;-65
2023/06/08 04:18:13;;;;;;;;;;;;;;;17.09;64.47;99781.06;3171454;28;20475;-66
2023/06/08 04:19:43;;;;;;;;;;;;;;;17.10;64.30;99780.16;3171394;28;20448;-65
2023/06/08 04:21:15;;;;;;;;;;;;;;;17.10;64.46;99780.16;3171281;28;20053;-66
2023/06/08 04:22:46;;;;;;;;;;;;;;;17.14;64.33;99775.50;3170625;28;20431;-63
2023/06/08 04:24:21;;;;;;;;;;;;;;;17.17;64.38;99780.53;3171908;28;19924;-65
2023/06/08 04:25:52;;;;;;;;;;;;;;;17.22;64.19;99787.16;3171639;28;19946;-65
2023/06/08 04:27:24;;;;;;;;;;;;;;;17.27;64.29;99789.41;3170681;28;20037;-65
2023/06/08 04:28:57;;;;;;;;;;;;;;;17.31;64.22;99785.63;3170856;28;19967;-65
2023/06/08 04:30:29;;;;;;;;;;;;;;;17.33;64.09;99788.97;3171449;28;19927;-65
2023/06/08 04:32:01;;;;;;;;;;;;;;;17.37;63.80;99787.81;3170783;28;19925;-65
2023/06/08 04:33:31;;;;;;;;;;;;;;;17.41;64.00;99791.88;3171290;28;19924;-71
2023/06/08 04:35:03;;;;;;;;;;;;;;;17.43;63.78;99784.72;3170962;28;20022;-67
2023/06/08 04:36:35;;;;;;;;;;;;;;;17.47;63.78;99786.16;3171361;28;19959;-66
2023/06/08 04:38:10;;;;;;;;;;;;;;;17.49;63.69;99786.91;3171257;28;20400;-68
2023/06/08 04:39:41;;;;;;;;;;;;;;;17.52;63.50;99789.31;3170783;28;19930;-69
2023/06/08 04:41:14;;;;;;;;;;;;;;;17.55;63.37;99779.50;3170634;28;19927;-67
2023/06/08 04:42:45;;;;;;;;;;;;;;;17.57;63.28;99785.47;3169681;28;19928;-66
2023/06/08 04:44:20;;;;;;;;;;;;;;;17.57;63.36;99788.13;3165971;28;19935;-68
2023/06/08 04:45:55;;;;;;;;;;;;;;;17.56;63.41;99791.72;3171325;28;19928;-66
2023/06/08 04:47:29;;;;;;;;;;;;;;;17.57;63.59;99791.63;3170242;28;19924;-67
2023/06/08 04:49:00;;;;;;;;;;;;;;;17.60;63.30;99783.47;3170595;28;20324;-63
2023/06/08 04:50:33;;;;;;;;;;;;;;;17.62;63.35;99780.72;3170886;28;19998;-65
2023/06/08 04:52:06;;;;;;;;;;;;;;;17.64;63.36;99784.91;3167372;28;20448;-64
2023/06/08 04:53:38;;;;;;;;;;;;;;;17.67;63.26;99781.22;3170175;28;19931;-65
2023/06/08 04:55:13;;;;;;;;;;;;;;;17.67;63.19;99783.84;3164510;28;19931;-66
2023/06/08 04:56:45;;;;;;;;;;;;;;;17.67;63.24;99779.44;3170456;28;19924;-64
2023/06/08 04:58:17;;;;;;;;;;;;;;;17.69;63.19;99782.78;3170082;28;19923;-66
2023/06/08 04:59:50;;;;;;;;;;;;;;;17.73;63.13;99781.59;3170176;28;19932;-65
2023/06/08 05:01:21;;;;;;;;;;;;;;;17.79;63.05;99784.75;3170755;28;19924;-65
2023/06/08 05:02:53;;;;;;;;;;;;;;;17.84;63.01;99786.09;3170803;28;19928;-65
2023/06/08 05:04:25;;;;;;;;;;;;;;;17.87;62.74;99791.13;3170611;28;19945;-66
2023/06/08 05:05:57;;;;;;;;;;;;;;;17.90;62.73;99785.63;3170984;28;20036;-66
2023/06/08 05:07:28;;;;;;;;;;;;;;;17.92;62.59;99789.00;3170920;28;20389;-66
2023/06/08 05:09:00;;;;;;;;;;;;;;;17.96;62.64;99798.34;3170417;28;19927;-66
2023/06/08 05:10:32;;;;;;;;;;;;;;;18.01;62.57;99789.22;3161597;28;20431;-66
2023/06/08 05:12:03;;;;;;;;;;;;;;;18.06;62.34;99789.72;3170618;28;20400;-66
2023/06/08 05:13:35;;;;;;;;;;;;;;;18.12;62.32;99794.53;3170666;28;19931;-66
2023/06/08 05:15:09;;;;;;;;;;;;;;;18.19;62.23;99801.03;3170531;28;19928;-66
2023/06/08 05:16:41;;;;;;;;;;;;;;;18.23;62.15;99805.09;3170830;28;20011;-66
2023/06/08 05:18:13;;;;;;;;;;;;;;;18.26;61.99;99807.50;3170835;28;20284;-65
2023/06/08 05:19:44;;;;;;;;;;;;;;;18.31;61.99;99799.22;3170718;28;20348;-65
2023/06/08 05:21:16;;;;;;;;;;;;;;;18.36;61.91;99794.44;3170704;28;19927;-66
2023/06/08 05:22:48;;;;;;;;;;;;;;;18.38;61.67;99800.44;3171036;28;19927;-64
2023/06/08 05:24:19;;;;;;;;;;;;;;;18.40;61.77;99798.53;3170723;28;19933;-62
2023/06/08 05:25:51;;;;;;;;;;;;;;;18.46;61.72;99798.03;3169040;28;19984;-64
2023/06/08 05:27:22;;;;;;;;;;;;;;;18.49;61.48;99800.44;3165570;28;19923;-63
2023/06/08 05:28:53;;;;;;;;;;;;;;;18.48;61.50;99796.09;3170377;28;20385;-62
2023/06/08 05:30:27;;;;;;;;;;;;;;;18.49;61.32;99807.50;3170217;28;19959;-63
2023/06/08 05:32:00;;;;;;;;;;;;;;;18.50;61.40;99802.09;3170343;28;20301;-63
2023/06/08 05:33:32;;;;;;;;;;;;;;;18.54;61.34;99800.91;3170610;28;19924;-63
2023/06/08 05:35:04;;;;;;;;;;;;;;;18.62;61.38;99797.66;3166810;28;19982;-64
2023/06/08 05:36:37;;;;;;;;;;;;;;;18.69;61.19;99804.13;3169674;28;19947;-65
2023/06/08 05:38:09;;;;;;;;;;;;;;;18.71;60.93;99807.50;3156922;28;20005;-66
2023/06/08 05:39:40;;;;;;;;;;;;;;;18.67;60.94;99806.06;3164690;28;19996;-66
2023/06/08 05:41:14;;;;;;;;;;;;;;;18.61;61.00;99807.38;3170580;28;19976;-64
2023/06/08 05:42:46;;;;;;;;;;;;;;;18.58;60.91;99806.78;3170568;28;20312;-65
2023/06/08 05:44:17;;;;;;;;;;;;;;;18.56;61.04;99811.34;3168842;28;20018;-63
2023/06/08 05:45:50;;;;;;;;;;;;;;;18.56;61.29;99812.16;3170737;28;19993;-62
2023/06/08 05:47:22;;;;;;;;;;;;;;;18.64;61.15;99807.16;3170718;28;20542;-63
2023/06/08 05:48:54;;;;;;;;;;;;;;;18.77;60.92;99806.22;3170560;28;19984;-64
2023/06/08 05:50:25;;;;;;;;;;;;;;;18.84;60.56;99813.53;3170182;28;19931;-64
2023/06/08 05:52:00;;;;;;;;;;;;;;;18.91;60.41;99815.66;3164407;28;19928;-68
2023/06/08 05:53:31;;;;;;;;;;;;;;;18.92;60.22;99809.41;3165406;28;19972;-64
2023/06/08 05:55:04;;;;;;;;;;;;;;;18.90;60.16;99811.34;3172759;28;20054;-64
2023/06/08 05:56:36;;;;;;;;;;;;;;;18.90;60.21;99806.94;3172403;28;19954;-63
2023/06/08 05:58:08;;;;;;;;;;;;;;;18.94;60.16;99805.72;3167127;28;19930;-66
2023/06/08 05:59:39;;;;;;;;;;;;;;;18.96;59.96;99801.16;3171754;28;19980;-67
2023/06/08 06:01:12;;;;;;;;;;;;;;;18.97;60.08;99802.00;3173148;28;20585;-68
2023/06/08 06:02:44;;;;;;;;;;;;;;;18.97;60.05;99804.63;3173150;28;19974;-66
2023/06/08 06:04:16;;;;;;;;;;;;;;;18.98;60.05;99801.84;3173058;28;19931;-65
2023/06/08 06:05:47;;;;;;;;;;;;;;;19.02;59.89;99805.09;3173037;28;19927;-66
2023/06/08 06:07:19;;;;;;;;;;;;;;;19.04;59.82;99805.81;3171892;28;19927;-65
2023/06/08 06:08:51;;;;;;;;;;;;;;;19.07;59.79;99800.28;3172582;28;19927;-66
2023/06/08 06:10:22;;;;;;;;;;;;;;;19.10;59.70;99800.84;3161847;28;19924;-65
2023/06/08 06:11:54;;;;;;;;;;;;;;;19.12;59.56;99803.38;3173061;28;19963;-65
2023/06/08 06:13:27;;;;;;;;;;;;;;;19.14;59.71;99805.88;3172853;28;20388;-65
2023/06/08 06:14:59;;;;;;;;;;;;;;;19.11;59.50;99801.72;3173412;28;19938;-65
2023/06/08 06:16:32;;;;;;;;;;;;;;;19.11;59.48;99796.44;3160254;28;19936;-67
2023/06/08 06:18:03;;;;;;;;;;;;;;;19.14;59.59;99796.19;3172240;28;19932;-64
2023/06/08 06:19:36;;;;;;;;;;;;;;;19.20;59.56;99798.34;3172692;28;19930;-64
2023/06/08 06:21:08;;;;;;;;;;;;;;;19.29;59.37;99792.31;3172694;28;19982;-65
2023/06/08 06:22:40;;;;;;;;;;;;;;;19.42;59.15;99791.28;3172440;28;19924;-65
2023/06/08 06:24:12;;;;;;;;;;;;;;;19.53;59.06;99794.72;3172780;28;19924;-66
2023/06/08 06:25:44;;;;;;;;;;;;;;;19.61;58.65;99790.59;3172633;28;19928;-66
2023/06/08 06:27:16;;;;;;;;;;;;;;;19.64;58.60;99785.94;3172938;28;20001;-66
2023/06/08 06:28:47;;;;;;;;;;;;;;;19.65;58.38;99779.69;3172729;28;19981;-66
2023/06/08 06:30:19;;;;;;;;;;;;;;;19.68;58.37;99782.09;3172801;28;20009;-66
2023/06/08 06:31:52;;;;;;;;;;;;;;;19.69;58.42;99781.09;3172488;28;20014;-65
2023/06/08 06:33:24;;;;;;;;;;;;;;;19.66;58.29;99791.94;3172948;28;20015;-66
2023/06/08 06:34:56;;;;;;;;;;;;;;;19.66;58.24;99776.06;3172829;28;19930;-66
2023/06/08 06:36:27;;;;;;;;;;;;;;;19.68;58.23;99781.25;3172127;28;19924;-66
2023/06/08 06:37:59;;;;;;;;;;;;;;;19.63;58.33;99778.13;3168196;28;19924;-66
2023/06/08 06:39:31;;;;;;;;;;;;;;;19.60;58.16;99781.84;3167771;28;19976;-66
2023/06/08 06:41:03;;;;;;;;;;;;;;;19.62;58.37;99776.44;3172130;28;19927;-66
2023/06/08 06:42:36;;;;;;;;;;;;;;;19.62;58.35;99771.16;3172295;28;20026;-65
2023/06/08 06:44:08;;;;;;;;;;;;;;;19.61;58.40;99775.63;3172504;28;20694;-65
2023/06/08 06:45:42;;;;;;;;;;;;;;;19.66;58.33;99767.31;3163861;28;19980;-66
2023/06/08 06:47:15;;;;;;;;;;;;;;;19.75;57.91;99766.53;3172547;28;19932;-67
2023/06/08 06:48:50;;;;;;;;;;;;;;;19.86;57.79;99763.84;3170623;28;19927;-66
2023/06/08 06:50:25;;;;;;;;;;;;;;;19.96;57.69;99766.53;3168954;28;20316;-67
2023/06/08 06:52:01;;;;;;;;;;;;;;;20.04;57.48;99764.09;3172124;28;20014;-71
2023/06/08 06:53:35;;;;;;;;;;;;;;;20.10;57.35;99766.22;3165761;28;19928;-67
2023/06/08 06:55:08;;;;;;;;;;;;;;;20.14;57.31;99757.06;3172522;28;19977;-67
2023/06/08 06:56:40;;;;;;;;;;;;;;;20.20;57.39;99758.31;3172223;28;19987;-68
2023/06/08 06:58:13;;;;;;;;;;;;;;;20.30;57.20;99763.66;3172140;28;19930;-68
2023/06/08 06:59:46;;;;;;;;;;;;;;;20.41;57.14;99761.78;3172509;28;19931;-67
2023/06/08 07:01:17;;;;;;;;;;;;;;;20.54;56.73;99758.91;3164677;28;19924;-67
2023/06/08 07:02:50;;;;;;;;;;;;;;;20.64;56.53;99757.13;3172428;28;19932;-67
2023/06/08 07:04:22;;;;;;;;;;;;;;;20.76;56.44;99751.72;3171929;28;20281;-67
2023/06/08 07:05:58;;;;;;;;;;;;;;;20.86;55.86;99757.91;3171977;28;20319;-67
2023/06/08 07:07:29;;;;;;;;;;;;;;;20.95;55.89;99759.72;3172316;28;20011;-67
2023/06/08 07:09:01;;;;;;;;;;;;;;;21.00;55.57;99754.88;3172358;28;19945;-67
2023/06/08 07:10:33;;;;;;;;;;;;;;;21.10;55.25;99763.66;3172247;28;19924;-68
2023/06/08 07:12:05;;;;;;;;;;;;;;;21.18;55.21;99759.47;3172030;28;19953;-68
2023/06/08 07:13:37;;;;;;;;;;;;;;;21.03;54.99;99732.53;3172098;28;20359;-66
2023/06/08 07:15:10;;;;;;;;;;;;;;;21.25;54.99;99752.66;3172459;28;20006;-69
2023/06/08 07:16:42;;;;;;;;;;;;;;;21.30;54.81;99755.72;3172203;28;20295;-67
2023/06/08 07:18:16;;;;;;;;;;;;;;;21.35;54.79;99754.34;3172259;28;20014;-68
2023/06/08 07:19:48;;;;;;;;;;;;;;;21.43;54.15;99753.66;3172224;28;19980;-68
2023/06/08 07:21:21;;;;;;;;;;;;;;;21.47;53.59;99754.19;3172472;28;19928;-67
2023/06/08 07:22:53;;;;;;;;;;;;;;;21.54;53.85;99750.88;3172066;28;20321;-67
2023/06/08 07:24:25;;;;;;;;;;;;;;;21.68;53.62;99746.09;3164381;28;19924;-66
2023/06/08 07:25:56;;;;;;;;;;;;;;;21.83;52.96;99750.00;3170798;28;19928;-67
2023/06/08 07:27:28;;;;;;;;;;;;;;;21.83;52.48;99750.00;3171478;28;19927;-67
2023/06/08 07:29:00;;;;;;;;;;;;;;;21.78;52.55;99752.22;3171660;28;20332;-71
2023/06/08 07:30:32;;;;;;;;;;;;;;;21.73;52.84;99755.28;3171226;28;19923;-69
2023/06/08 07:32:04;;;;;;;;;;;;;;;21.75;53.02;99747.22;3171876;28;19970;-71
2023/06/08 07:33:37;;;;;;;;;;;;;;;21.84;52.56;99743.72;3171998;28;20448;-68
2023/06/08 07:35:09;;;;;;;;;;;;;;;21.93;52.45;99744.66;3172020;28;19928;-69
2023/06/08 07:36:40;;;;;;;;;;;;;;;21.96;52.84;99745.19;3171694;28;20340;-69
2023/06/08 07:38:13;;;;;;;;;;;;;;;22.06;52.53;99747.00;3163222;28;19975;-71
2023/06/08 07:39:45;;;;;;;;;;;;;;;22.16;52.33;99737.19;3171247;28;19984;-69
2023/06/08 07:41:16;;;;;;;;;;;;;;;22.22;52.31;99734.81;3171953;28;20307;-68
2023/06/08 07:42:48;;;;;;;;;;;;;;;22.30;52.39;99730.59;3169110;28;19946;-67
2023/06/08 07:44:20;;;;;;;;;;;;;;;22.41;52.18;99733.91;3170784;28;19957;-70
2023/06/08 07:45:51;;;;;;;;;;;;;;;22.50;51.46;99729.53;3171562;28;19924;-68
2023/06/08 07:47:23;;;;;;;;;;;;;;;22.59;50.90;99725.16;3171926;28;20036;-68
2023/06/08 07:48:55;;;;;;;;;;;;;;;;;;3171891;28;19976;-67
2023/06/08 07:50:28;;;;;;;;;;;;;;;22.73;50.43;99721.16;3172007;28;19924;-69
2023/06/08 07:51:59;;;;;;;;;;;;;;;22.75;50.66;99722.69;3171622;28;19938;-68
2023/06/08 07:53:35;;;;;;;;;;;;;;;22.70;50.54;99720.47;3169587;28;19928;-67
2023/06/08 07:55:07;;;;;;;;;;;;;;;22.69;50.59;99723.28;3171540;28;19946;-67
2023/06/08 07:56:39;;;;;;;;;;;;;;;22.72;50.91;99723.00;3172053;28;20030;-69
2023/06/08 07:58:11;;;;;;;;;;;;;;;22.79;50.38;99726.72;3171625;28;19931;-70
2023/06/08 07:59:43;;;;;;;;;;;;;;;22.78;50.66;99717.09;3171491;28;19924;-68
2023/06/08 08:01:16;;;;;;;;;;;;;;;22.80;50.72;99724.88;3172059;28;19924;-69